LFBD

Details ICAO LFBD (BOD)
Name Bordeaux Merignac
Region France
Timezone Europe/Paris (UTC+2.0)
Plans Departing 1246
Arriving 945
Stats Elevation 166 ft / 51 m (AMSL)
Location 44.828762° -0.714755°
Runways 2
Magnetic Variation 0.001° W
Sunrise 2018-06-23 04:18:30 UTC / 2018-06-23 06:18:30 Local
Sunset 2018-06-23 19:54:02 UTC / 2018-06-23 21:54:02 Local
Advertisement - Login to hide

Runways

ID Width Length Bearing (true) Bearing (mag) Surface Threshold Offset Overrun Length
05 148 ft / 45 m 10,164 ft / 3,098 m 45.48° 45.48° Asphalt 26 ft / 8 m 1,145 ft / 349 m
11 148 ft / 45 m 7,931 ft / 2,417 m 106.45° 106.45° Asphalt 26 ft / 8 m 1,198 ft / 365 m
23 148 ft / 45 m 10,164 ft / 3,098 m 225.50° 225.50° Asphalt 39 ft / 12 m 1,266 ft / 386 m
29 148 ft / 45 m 7,931 ft / 2,417 m 286.47° 286.47° Asphalt 33 ft / 10 m 1,201 ft / 366 m

Approach Navaids

Runway Type Ident Frequency Range Bearing (true) Bearing (mag) Slope Elevation
23 Localiser BD 110.30 MHz 18 nm / 33 km 225.33° 225.33° - 161 ft / 49 m (AMSL)
23 Glidescope BD 110.30 MHz 10 nm / 19 km 225.49° 225.49° 3.00° 152 ft / 46 m (AMSL)
23 DME BD 110.30 MHz 18 nm / 33 km - - - 207 ft / 63 m (AMSL)
29 Localiser BEI 111.15 MHz 18 nm / 33 km 286.30° 286.30° - 160 ft / 49 m (AMSL)
29 Glidescope BEI 111.15 MHz 10 nm / 19 km 286.46° 286.46° 3.00° 158 ft / 48 m (AMSL)
29 DME BEI 111.15 MHz 18 nm / 33 km - - - 214 ft / 65 m (AMSL)

Map

Weather


0- 5 10 15 20 25 30 35+ Temperature / ° C

Clouds and Precipitation
Forecast for 2018-06-23 12:00 UTC. Updated 4 hours ago

Ground ~20,000 ft ~40,000 ft Winds

METAR

LFBD 231400Z AUTO 05010KT 020V100 CAVOK 27/09 Q1020 NOSIG

TAF

TAF LFBD 231100Z 2312/2418 04010KT CAVOK TX30/2415Z TN18/2405Z= TAF LFBL 231100Z 2312/2412 05013KT CAVOK

Frequencies

Recorded 131.15 MHz ATIS
Tower 118.30 MHz Tower
Ground 121.90 MHz Ground
Approach 118.60 MHz Approach
Warning: Do not use this data for real-world aviation or navigation. No guarantee of current accuracy is given.